Tiempo atmosférico en la estación meteorológica de La Oliva, Puerto de Corralejo, Las Palmas (6 m.)



Fecha
DESCASC
Temp. máxima en grados centígrados (hora)
DESCASC
Temp. mínima en grados centígrados (hora)
DESCASC
Temp. media en grados centígrados
DESCASC
Racha de viento máxima en m/sg (hora)
DESCASC
Velocidad máxima media en intervalos de 10 minutos(hora)
DESCASC
Precipitaciones diarias en mm
DESCASC
Precipitaciones de 00:00 a 06:00 en mm
DESCASC
Precipitaciones de 06:00 a 12:00 en mm
DESCASC
Precipitaciones de 12:00 a 18:00 en mm
DESCASC
Precipitaciones de 18:00 a 24:00 en mm
DESCASC
16-01-2020 19.2 (11:50) 13.7 (07:40) 16.5 7.5 (01:00) 5.56 (12:50) 0 0 0 0 0
15-01-2020 19 (16:20) 13.9 (07:30) 16.4 10.56 (13:00) 7.5 (12:40) 0 0 0 0 0
14-01-2020 19.3 (15:20) 14.7 (23:10) 17 13.06 (15:00) 9.72 (14:40) 0 0 0 0 0
13-01-2020 19.6 (16:30) 17.2 (22:00) 18.4 14.72 (14:00) 11.39 (13:40) 0 0 0 0 0
12-01-2020 19.5 (13:10) 17.3 (00:00) 18.4 10.83 (23:50) 8.33 (23:50) 0 0 0 0 0
11-01-2020 18.7 (13:20) 17.3 (00:00) 18 12.5 (21:00) 10 (15:10) 0 0 0 0 0
10-01-2020 19.4 (13:00) 17.1 (00:00) 18.3 13.06 (09:50) 10 (11:50) 0 0 0 0 0
09-01-2020 19.6 (13:10) 17.3 (00:00) 18.4 13.61 (15:00) 10.28 (19:00) 0 0 0 0 0
08-01-2020 20.2 (14:00) 16.7 (00:00) 18.5 10.28 (19:00) 6.67 (18:10) 0 0 0 0 0
07-01-2020 19.9 (14:10) 16.7 (00:00) 18.3 11.67 (05:00) 8.61 (03:50) 0 0 0 0 0
06-01-2020 19.8 (14:00) 16.7 (00:00) 18.3 13.33 (09:00) 8.89 (06:20) 0 0 0 0 0
05-01-2020 19.9 (11:50) 17.2 (00:00) 18.6 8.33 (13:00) 6.11 (20:30) 0 0 0 0 0
04-01-2020 19.5 (14:00) 17 (00:00) 18.3 17.5 (01:00) 9.44 (01:30) 0 0 0 0 0
03-01-2020 18.9 (10:10) 17.3 (00:00) 18.1 14.17 (23:00) 10.28 (22:10) 0 0 0 0 0
02-01-2020 18.7 (00:00) 16.7 (00:00) 17.7 15.83 (12:00) 11.67 (11:00) 0 0 0 0 0
01-01-2020 19 (23:20) 17.4 (00:00) 18.2 17.78 (08:00) 11.94 (11:00) 0 0 0 0 0
31-12-2019 19.4 (15:50) 17.4 (00:00) 18.4 10.28 (14:00) 7.22 (13:00) 0 0 0 0 0
30-12-2019 -- (--) -- (--) -- -- (--) -- (--) -- 0 0 -- 0
29-12-2019 21 (14:30) 18.3 (00:00) 19.6 15 (10:00) 9.72 (10:30) 0 0 0 0 0
28-12-2019 21.2 (15:40) 18 (00:00) 19.6 11.11 (15:00) 7.22 (13:00) 0 0 0 0 0
27-12-2019 21.5 (15:40) 18.6 (00:00) 20.1 11.11 (04:00) 8.33 (04:10) 0 0 0 0 0
26-12-2019 21.8 (00:20) 19 (00:00) 20.4 16.39 (01:00) 10.56 (00:40) 0 0 0 0 0
25-12-2019 22 (23:30) 18.1 (00:00) 20.1 10.56 (23:59) 8.33 (23:40) 0 0 0 0 0
24-12-2019 22 (15:40) 17.4 (00:00) 19.7 13.33 (03:00) 10.83 (03:30) 0 0 0 0 0
23-12-2019 21 (16:00) 17.4 (00:00) 19.2 12.22 (00:20) 9.72 (00:20) 0 0 0 0 0
22-12-2019 22.1 (11:40) 18.3 (00:00) 20.2 16.94 (22:00) 10.83 (22:50) 0 0 0 0 0
21-12-2019 21.7 (14:10) 17.1 (00:00) 19.4 7.5 (18:00) 5.83 (21:40) 0 0 0 0 0

Gráficas

Temp. máximas Temp. mínimas Temp. medias Precipitaciones Rachas de viento máximas Velocidades máximas media en intervalos de 10 minutos

Datos horarios

Fecha y hora oficial Temperatura (ºC) Velocidad del viento (km/h) Dirección del viento Racha (km/h) Dirección de racha Precipitación (mm) Presión (hPa) Tendencia (hPa) Humedad (%)
2020-01-19 23:00:00 18.1 25 Norte 34 Norte 0 -- -- 75
2020-01-19 22:00:00 18.5 10 Norte 39 Norte 0 -- -- 77
2020-01-19 21:00:00 18.2 22 Norte 30 Norte 0 -- -- 84
2020-01-19 20:00:00 18.3 28 Norte 39 Norte 0 -- -- 81
2020-01-19 19:00:00 18.5 25 Norte 31 Norte 0 -- -- 79
2020-01-19 18:00:00 19.2 22 Norte 28 Norte 0 -- -- 72
2020-01-19 17:00:00 18.8 17 Nordeste 25 Nordeste 0 -- -- 69
2020-01-19 16:00:00 19.4 20 Nordeste 28 Este 0 -- -- 67
2020-01-19 15:00:00 20.1 21 Nordeste 37 Nordeste 0 -- -- 64
2020-01-19 14:00:00 20.1 22 Este 37 Este 0 -- -- 60
2020-01-19 13:00:00 20 20 Este 28 Este 0 -- -- 57
2020-01-19 12:00:00 19.9 20 Este 26 Este 0 -- -- 64
2020-01-19 11:00:00 19.2 15 Nordeste 26 Este 0 -- -- 77
2020-01-19 10:00:00 18.1 21 Nordeste 30 Nordeste 0 -- -- 81
2020-01-19 09:00:00 17.9 21 Nordeste 30 Nordeste 0 -- -- 82
2020-01-19 08:00:00 17.4 24 Nordeste 40 Nordeste 0 -- -- 78
2020-01-19 07:00:00 17.6 30 Nordeste 47 Nordeste 0 -- -- 74
2020-01-19 06:00:00 17.4 16 Nordeste 33 Nordeste 0 -- -- 69
2020-01-19 05:00:00 17.5 26 Nordeste 38 Nordeste 0 -- -- 66
2020-01-19 04:00:00 18 29 Nordeste 38 Nordeste 0 -- -- 53
2020-01-19 03:00:00 17.8 16 Nordeste 23 Nordeste 0 -- -- 50
2020-01-19 02:00:00 15.9 4 Sudoeste 9 Sudoeste 0 -- -- 61
2020-01-19 01:00:00 16 4 Sudoeste 9 Sudoeste 0 -- -- 60
2020-01-19 00:00:00 16.7 5 Sudoeste 15 Nordeste 0 -- -- 57
2020-01-18 23:00:00 18.2 14 Nordeste 18 Nordeste 0 -- -- 54
2020-01-18 22:00:00 17.9 13 Nordeste 21 Nordeste 0 -- -- 62
2020-01-18 21:00:00 18.1 18 Nordeste 31 Nordeste 0 -- -- 57
2020-01-18 20:00:00 18.6 24 Nordeste 30 Nordeste 0 -- -- 53
2020-01-18 19:00:00 18.2 16 Nordeste 22 Este 0 -- -- 69
2020-01-18 18:00:00 18.8 17 Este 23 Nordeste 0 -- -- 65
2020-01-18 17:00:00 19.9 13 Este 21 Este 0 -- -- 54
2020-01-18 16:00:00 20.3 13 Este 19 Este 0 -- -- 57
2020-01-18 15:00:00 20.1 15 Este 20 Este 0 -- -- 64
2020-01-18 14:00:00 20.1 15 Este 20 Este 0 -- -- 66
2020-01-18 13:00:00 19.6 14 Este 18 Este 0 -- -- 72
2020-01-18 12:00:00 19.8 13 Este 26 Este 0 -- -- 75
2020-01-18 11:00:00 18.9 21 Este 31 Este 0 -- -- 83
2020-01-18 10:00:00 18.6 20 Este 31 Este 0 -- -- 84
2020-01-18 09:00:00 17.7 25 Este 36 Este 0 -- -- 88
2020-01-18 08:00:00 17 27 Este 35 Este 0 -- -- 90
2020-01-18 07:00:00 16.9 21 Este 28 Este 0 -- -- 90
2020-01-18 06:00:00 17 21 Este 30 Este 0 -- -- 89
2020-01-18 05:00:00 17.1 19 Este 26 Este 0 -- -- 88
2020-01-18 04:00:00 17 13 Nordeste 18 Nordeste 0 -- -- 88
2020-01-18 03:00:00 16.9 15 Este 21 Este 0 -- -- 86
2020-01-18 02:00:00 16.9 16 Este 24 Este 0 -- -- 77
2020-01-18 01:00:00 17.1 11 Este 18 Nordeste 0 -- -- 70
2020-01-18 00:00:00 16.8 9 Este 12 Nordeste 0 -- -- 71
2020-01-17 23:00:00 17.2 12 Este 20 Nordeste 0 -- -- 68
2020-01-17 22:00:00 17.4 17 Nordeste 28 Nordeste 0 -- -- 71
2020-01-17 21:00:00 17.5 20 Nordeste 26 Nordeste 0 -- -- 69
2020-01-17 20:00:00 17.5 21 Nordeste 30 Nordeste 0 -- -- 66
2020-01-17 19:00:00 17.5 17 Nordeste 24 Nordeste 0 -- -- 64
2020-01-17 18:00:00 18 19 Este 27 Nordeste 0 -- -- 58
2020-01-17 17:00:00 18.8 18 Este 29 Este 0 -- -- 54
2020-01-17 16:00:00 19.2 20 Este 28 Este 0 -- -- 49
2020-01-17 15:00:00 19 23 Este 30 Este 0 -- -- 48
2020-01-17 14:00:00 19.2 22 Este 32 Este 0 -- -- 49
2020-01-17 13:00:00 19.1 24 Este 32 Este 0 -- -- 47
2020-01-17 12:00:00 19.3 21 Este 33 Este 0 -- -- 47
2020-01-17 11:00:00 18.9 24 Este 32 Este 0 -- -- 53
2020-01-17 10:00:00 18.5 24 Este 31 Este 0 -- -- 54
2020-01-17 09:00:00 18.1 19 Este 26 Este 0 -- -- 55
2020-01-17 08:00:00 17 14 Nordeste 25 Nordeste 0 -- -- 63
2020-01-17 07:00:00 16.9 19 Nordeste 29 Este 0 -- -- 65
2020-01-17 06:00:00 16.7 18 Nordeste 26 Nordeste 0 -- -- 66
2020-01-17 05:00:00 16.7 15 Nordeste 26 Nordeste 0 -- -- 64
2020-01-17 04:00:00 16.7 17 Nordeste 30 Nordeste 0 -- -- 61
2020-01-17 03:00:00 16.5 12 Este 18 Este 0 -- -- 48
2020-01-17 02:00:00 14.8 4 Sur 12 Este 0 -- -- 57
2020-01-17 01:00:00 16.6 8 Este 17 Nordeste 0 -- -- 48
2020-01-17 00:00:00 16.8 12 Nordeste 17 Nordeste 0 -- -- 54
2020-01-16 23:00:00 16.6 12 Este 18 Nordeste 0 -- -- 56
2020-01-16 22:00:00 16.8 11 Este 17 Nordeste 0 -- -- 55
2020-01-16 21:00:00 17.1 13 Nordeste 17 Nordeste 0 -- -- 48
2020-01-16 20:00:00 17.1 11 Nordeste 17 Este 0 -- -- 47
2020-01-16 19:00:00 17.4 13 Este 16 Este 0 -- -- 48
2020-01-16 18:00:00 18.2 11 Este 17 Este 0 -- -- 46
2020-01-16 17:00:00 18.7 15 Este 19 Este 0 -- -- 42
2020-01-16 16:00:00 19.1 14 Este 21 Este 0 -- -- 45
2020-01-16 15:00:00 19.1 17 Este 23 Este 0 -- -- 47
2020-01-16 14:00:00 19.1 17 Sudeste 23 Este 0 -- -- 44
2020-01-16 13:00:00 19 19 Este 24 Este 0 -- -- 41
2020-01-16 12:00:00 19.1 18 Este 23 Sudeste 0 -- -- 45
2020-01-16 11:00:00 19.1 15 Sudeste 24 Sudeste 0 -- -- 47
2020-01-16 10:00:00 18.5 16 Sudeste 20 Sudeste 0 -- -- 55
2020-01-16 09:00:00 16.5 9 Sudeste 13 Sudeste 0 -- -- 61
2020-01-16 08:00:00 13.9 8 Sudeste 12 Sudeste 0 -- -- 68
2020-01-16 07:00:00 13.8 8 Sur 11 Sudeste 0 -- -- 69
2020-01-16 06:00:00 14.4 4 Sudeste 9 Sur 0 -- -- 69
2020-01-16 05:00:00 14.6 5 Sur 13 Sur 0 -- -- 69
2020-01-16 04:00:00 14.9 4 Sur 12 Sudeste 0 -- -- 70
2020-01-16 03:00:00 15.4 9 Sudeste 21 Sudeste 0 -- -- 69
2020-01-16 02:00:00 17.6 19 Este 26 Este 0 -- -- 67
2020-01-16 01:00:00 17.1 20 Este 27 Este 0 -- -- 70
2020-01-16 00:00:00 16.4 10 Este 17 Este 0 -- -- 66
2020-01-15 23:00:00 16.5 12 Este 19 Este 0 -- -- 65
2020-01-15 22:00:00 16.9 15 Este 19 Este 0 -- -- 58
2020-01-15 21:00:00 16.9 9 Este 15 Este 0 -- -- 54
2020-01-15 20:00:00 17 10 Este 17 Este 0 -- -- 51
2020-01-15 19:00:00 17.4 10 Este 15 Este 0 -- -- 45
2020-01-15 18:00:00 18 10 Este 17 Sudeste 0 -- -- 44
2020-01-15 17:00:00 18.5 10 Este 14 Sudeste 0 -- -- 39
2020-01-15 16:00:00 18.4 13 Sudeste 23 Sudeste 0 -- -- 38
2020-01-15 15:00:00 18.4 18 Sudeste 30 Sudeste 0 -- -- 37
2020-01-15 14:00:00 18.4 22 Sudeste 32 Sudeste 0 -- -- 35
2020-01-15 13:00:00 18 26 Sudeste 38 Sudeste 0 -- -- 36
2020-01-15 12:00:00 18.4 24 Sudeste 33 Sudeste 0 -- -- 42
2020-01-15 11:00:00 18.2 19 Sudeste 24 Sudeste 0 -- -- 50
2020-01-15 10:00:00 18.1 15 Sudeste 19 Sudeste 0 -- -- 55
2020-01-15 09:00:00 16.3 7 Sudeste 12 Sur 0 -- -- 58
2020-01-15 08:00:00 14 9 Sur 14 Sur 0 -- -- 67
2020-01-15 07:00:00 14.2 5 Sudeste 12 Sudeste 0 -- -- 69
2020-01-15 06:00:00 14.7 8 Sudeste 10 Sur 0 -- -- 66
2020-01-15 05:00:00 14.8 8 Sudeste 21 Sudeste 0 -- -- 66
2020-01-15 04:00:00 16.1 12 Sudeste 28 Sudeste 0 -- -- 64
2020-01-15 03:00:00 17.2 21 Este 26 Este 0 -- -- 67
2020-01-15 02:00:00 16.6 14 Este 18 Este 0 -- -- 69
2020-01-15 01:00:00 14.6 3 Sudeste 5 Sur 0 -- -- 60
2020-01-15 00:00:00 15 5 Sur 6 Sur 0 -- -- 50
2020-01-14 23:00:00 14.9 4 Sur 6 Sur 0 -- -- 46
2020-01-14 22:00:00 15.1 3 Sur 7 Sur 0 -- -- 36
2020-01-14 21:00:00 15.8 3 Sur 8 Sur 0 -- -- 33
2020-01-14 20:00:00 16.5 6 Sudeste 17 Sudeste 0 -- -- 33
2020-01-14 19:00:00 18.3 12 Sudeste 21 Sudeste 0 -- -- 21
2020-01-14 18:00:00 18.3 17 Sudeste 33 Sudeste 0 -- -- 38
2020-01-14 17:00:00 19 26 Sudeste 39 Sudeste 0 -- -- 35
2020-01-14 16:00:00 19.2 29 Sudeste 41 Sudeste 0 -- -- 42
2020-01-14 15:00:00 18.8 32 Sudeste 47 Sudeste 0 -- -- 41
2020-01-14 14:00:00 18.7 29 Sudeste 41 Sudeste 0 -- -- 47
2020-01-14 13:00:00 18.4 28 Sudeste 40 Sudeste 0 -- -- 41
2020-01-14 12:00:00 18.3 31 Sudeste 42 Sudeste 0 -- -- 39
2020-01-14 11:00:00 18.4 27 Sudeste 37 Sudeste 0 -- -- 40
2020-01-14 10:00:00 18.3 26 Sudeste 36 Sudeste 0 -- -- 45
2020-01-14 09:00:00 16.7 18 Sudeste 24 Sudeste 0 -- -- 51
2020-01-14 08:00:00 15.9 19 Sudeste 30 Sudeste 0 -- -- 53
2020-01-14 07:00:00 15.5 18 Sudeste 22 Sudeste 0 -- -- 55
2020-01-14 06:00:00 15.5 8 Sur 21 Sur 0 -- -- 53
2020-01-14 05:00:00 15.4 11 Sudeste 18 Sur 0 -- -- 60
2020-01-14 04:00:00 16.1 12 Sudeste 21 Este 0 -- -- 63
2020-01-14 03:00:00 17.3 13 Sudeste 17 Sudeste 0 -- -- 74
2020-01-14 02:00:00 17.3 13 Este 22 Este 0 -- -- 73
2020-01-14 01:00:00 17.5 18 Este 25 Nordeste 0 -- -- 73
2020-01-14 00:00:00 17.3 8 Este 17 Este 0 -- -- 70
2020-01-13 23:00:00 17.3 9 Este 18 Este 0 -- -- 67
2020-01-13 22:00:00 17.2 15 Este 22 Este 0 -- -- 64
2020-01-13 21:00:00 17.4 19 Este 31 Nordeste 0 -- -- 64
2020-01-13 20:00:00 17.6 22 Este 37 Nordeste 0 -- -- 63
2020-01-13 19:00:00 17.8 20 Este 28 Nordeste 0 -- -- 58
2020-01-13 18:00:00 18.2 17 Nordeste 28 Nordeste 0 -- -- 58
2020-01-13 17:00:00 19 15 Nordeste 23 Este 0 -- -- 51
2020-01-13 16:00:00 19.1 17 Este 30 Sudeste 0 -- -- 46
2020-01-13 15:00:00 19 24 Sudeste 42 Sudeste 0 -- -- 39
2020-01-13 14:00:00 19 37 Sudeste 53 Sudeste 0 -- -- 41
2020-01-13 13:00:00 18.8 33 Sudeste 44 Sudeste 0 -- -- 39
2020-01-13 12:00:00 18.5 34 Sudeste 48 Sudeste 0 -- -- 42
2020-01-13 11:00:00 18.2 31 Sudeste 48 Sudeste 0 -- -- 40
2020-01-13 10:00:00 18.4 31 Sudeste 40 Sudeste 0 -- -- 42
2020-01-13 09:00:00 18 21 Sudeste 30 Sudeste 0 -- -- 41
2020-01-13 08:00:00 17.9 23 Sudeste 29 Sudeste 0 -- -- 47
2020-01-13 07:00:00 17.8 19 Este 27 Este 0 -- -- 60
2020-01-13 06:00:00 17.6 18 Este 29 Este 0 -- -- 64
2020-01-13 05:00:00 17.6 23 Este 33 Este 0 -- -- 68
2020-01-13 04:00:00 17.6 26 Nordeste 38 Nordeste 0 -- -- 69
2020-01-13 03:00:00 17.6 30 Nordeste 43 Nordeste 0 -- -- 70
2020-01-13 02:00:00 17.6 35 Nordeste 45 Este 0 -- -- 69
2020-01-13 01:00:00 17.7 32 Nordeste 48 Nordeste 0 -- -- 67
2020-01-13 00:00:00 17.8 29 Nordeste 39 Nordeste 0 -- -- 65
2020-01-12 23:00:00 17.4 19 Nordeste 28 Nordeste 0 -- -- 64
2020-01-12 22:00:00 17.5 15 Nordeste 21 Nordeste 0 -- -- 61
2020-01-12 21:00:00 17.6 18 Nordeste 29 Nordeste 0 -- -- 55
2020-01-12 20:00:00 17.9 18 Nordeste 25 Nordeste 0 -- -- 51
2020-01-12 19:00:00 17.8 21 Nordeste 27 Nordeste 0 -- -- 53
2020-01-12 18:00:00 17.9 24 Nordeste 35 Nordeste 0 -- -- 54
2020-01-12 17:00:00 18.4 27 Este 36 Este 0 -- -- 49
2020-01-12 16:00:00 18.9 23 Este 32 Este 0 -- -- 43
2020-01-12 15:00:00 19.3 23 Este 32 Este 0 -- -- 41
2020-01-12 14:00:00 19.5 20 Este 30 Este 0 -- -- 46
2020-01-12 13:00:00 19.1 20 Este 31 Este 0 -- -- 51
2020-01-12 12:00:00 19.1 24 Este 32 Nordeste 0 -- -- 57
2020-01-12 11:00:00 18.8 22 Nordeste 31 Nordeste 0 -- -- 58
2020-01-12 10:00:00 18.1 20 Nordeste 29 Nordeste 0 -- -- 59
2020-01-12 09:00:00 17.6 24 Nordeste 33 Nordeste 0 -- -- 63
2020-01-12 08:00:00 17.5 23 Nordeste 27 Norte 0 -- -- 63
2020-01-12 07:00:00 17.5 15 Nordeste 33 Nordeste 0 -- -- 63
2020-01-12 06:00:00 17.4 15 Norte 26 Nordeste 0 -- -- 60
2020-01-12 05:00:00 17.5 21 Norte 30 Nordeste 0 -- -- 59
2020-01-12 04:00:00 17.6 26 Nordeste 38 Nordeste 0 -- -- 59
2020-01-12 03:00:00 17.4 11 Norte 19 Norte 0 -- -- 59
2020-01-12 02:00:00 17.5 13 Nordeste 28 Norte 0 -- -- 60
2020-01-12 01:00:00 17.4 15 Nordeste 30 Nordeste 0 -- -- 61
2020-01-12 00:00:00 17.5 32 Nordeste 45 Nordeste 0 -- -- 62
2020-01-11 23:00:00 17.5 19 Norte 35 Norte 0 -- -- 60
2020-01-11 22:00:00 17.7 23 Norte 37 Norte 0 -- -- 63
2020-01-11 21:00:00 17.8 30 Norte 45 Norte 0 -- -- 63
2020-01-11 20:00:00 17.8 29 Norte 38 Norte 0 -- -- 66
2020-01-11 19:00:00 18 24 Norte 41 Norte 0 -- -- 64
2020-01-11 18:00:00 17.8 24 Norte 36 Norte 0 -- -- 65
2020-01-11 17:00:00 17.7 24 Norte 43 Norte 0 -- -- 68
2020-01-11 16:00:00 18 29 Norte 42 Norte 0 -- -- 67
2020-01-11 15:00:00 18 31 Norte 42 Norte 0 -- -- 64
2020-01-11 14:00:00 18.4 29 Norte 36 Norte 0 -- -- 63
2020-01-11 13:00:00 18.4 24 Noroeste 35 Norte 0 -- -- 59
2020-01-11 12:00:00 18.4 25 Norte 34 Norte 0 -- -- 58
2020-01-11 11:00:00 18.5 22 Norte 32 Norte 0 -- -- 60
2020-01-11 10:00:00 18.4 26 Norte 37 Norte 0 -- -- 56
2020-01-11 09:00:00 17.7 24 Norte 30 Norte 0 -- -- 61
2020-01-11 08:00:00 17.6 18 Norte 33 Norte 0 -- -- 62
2020-01-11 07:00:00 17.7 22 Norte 35 Norte 0 -- -- 66
2020-01-11 06:00:00 17.9 17 Norte 30 Norte 0 -- -- 60
2020-01-11 05:00:00 17.9 25 Norte 40 Nordeste 0 -- -- 61
2020-01-11 04:00:00 17.7 22 Nordeste 34 Norte 0 -- -- 61
2020-01-11 03:00:00 17.7 20 Norte 35 Norte 0 -- -- 63
2020-01-11 02:00:00 17.7 24 Norte 30 Norte 0 -- -- 65
2020-01-11 01:00:00 17.8 23 Norte 37 Norte 0 -- -- 70
2020-01-11 00:00:00 17.8 19 Norte 30 Norte 0 -- -- 71
2020-01-10 23:00:00 18.2 18 Norte 28 Norte 0 -- -- 72
2020-01-10 22:00:00 18.2 18 Norte 27 Nordeste 0 -- -- 74
2020-01-10 21:00:00 18.5 11 Nordeste 27 Norte 0 -- -- 72
2020-01-10 20:00:00 18.3 14 Norte 31 Norte 0 -- -- 69
2020-01-10 19:00:00 18.6 22 Norte 32 Norte 0 -- -- 66
2020-01-10 18:00:00 19.1 23 Nordeste 31 Nordeste 0 -- -- 64
2020-01-10 17:00:00 19.3 21 Nordeste 40 Norte 0 -- -- 64
2020-01-10 16:00:00 19.4 26 Nordeste 40 Nordeste 0 -- -- 64
2020-01-10 15:00:00 19.4 25 Nordeste 34 Nordeste 0 -- -- 65
2020-01-10 14:00:00 19.2 29 Nordeste 39 Nordeste 0 -- -- 67
2020-01-10 13:00:00 19.4 24 Nordeste 33 Nordeste 0 -- -- 67
2020-01-10 12:00:00 19.2 32 Nordeste 47 Nordeste 0 -- -- 66
2020-01-10 11:00:00 18.9 29 Nordeste 42 Nordeste 0 -- -- 71
2020-01-10 10:00:00 18.9 35 Norte 47 Nordeste 0 -- -- 76
2020-01-10 09:00:00 17.5 22 Nordeste 40 Nordeste 0 -- -- 90
2020-01-10 08:00:00 17.5 23 Norte 36 Nordeste 0 -- -- 90
2020-01-10 07:00:00 17.9 24 Norte 47 Norte 0 -- -- 86
2020-01-10 06:00:00 18 25 Norte 40 Nordeste 0 -- -- 86
2020-01-10 05:00:00 17.9 20 Norte 33 Nordeste 0 -- -- 77
2020-01-10 04:00:00 18.5 22 Norte 32 Norte 0 -- -- 68
2020-01-10 03:00:00 18.5 22 Nordeste 29 Nordeste 0 -- -- 68
2020-01-10 02:00:00 18.3 19 Norte 27 Norte 0 -- -- 68
2020-01-10 01:00:00 18.3 25 Nordeste 32 Nordeste 0 -- -- 67
2020-01-10 00:00:00 18.4 15 Norte 26 Norte 0 -- -- 66
2020-01-09 23:00:00 18.2 19 Norte 32 Norte 0 -- -- 63
2020-01-09 22:00:00 18.1 16 Norte 28 Norte 0 -- -- 62
2020-01-09 21:00:00 18.1 16 Norte 31 Norte 0 -- -- 62
2020-01-09 20:00:00 18.2 21 Norte 35 Norte 0 -- -- 63
2020-01-09 19:00:00 18.3 37 Norte 45 Norte 0 -- -- 59
2020-01-09 18:00:00 18.4 32 Norte 48 Norte 0 -- -- 59
2020-01-09 17:00:00 19.1 26 Norte 40 Norte 0 -- -- 58
2020-01-09 16:00:00 19.1 30 Norte 44 Norte 0 -- -- 60
2020-01-09 15:00:00 19.2 31 Norte 49 Noroeste 0 -- -- 62
2020-01-09 14:00:00 19 30 Norte 41 Norte 0 -- -- 57
2020-01-09 13:00:00 19.4 23 Norte 34 Norte 0 -- -- 57
2020-01-09 12:00:00 19.3 26 Norte 36 Norte 0 -- -- 54
2020-01-09 11:00:00 19 21 Norte 29 Norte 0 -- -- 59
2020-01-09 10:00:00 18.8 13 Norte 21 Norte 0 -- -- 60
2020-01-09 09:00:00 18.1 18 Norte 26 Norte 0 -- -- 60
2020-01-09 08:00:00 17.5 20 Norte 27 Norte 0 -- -- 62
2020-01-09 07:00:00 17.5 23 Nordeste 31 Nordeste 0 -- -- 64
2020-01-09 06:00:00 17.3 16 Norte 26 Norte 0 -- -- 61
2020-01-09 05:00:00 17.5 22 Norte 33 Norte 0 -- -- 62
2020-01-09 04:00:00 17.4 19 Norte 27 Norte 0 -- -- 66
2020-01-09 03:00:00 17.4 17 Nordeste 26 Nordeste 0 -- -- 65
2020-01-09 02:00:00 17.5 19 Norte 31 Nordeste 0 -- -- 63
2020-01-09 01:00:00 17.5 13 Norte 21 Norte 0 -- -- 65
2020-01-09 00:00:00 17.6 17 Norte 26 Norte 0 -- -- 61
2020-01-08 23:00:00 17.7 18 Norte 27 Norte 0 -- -- 61
2020-01-08 22:00:00 17.8 21 Norte 27 Norte 0 -- -- 64
2020-01-08 21:00:00 17.8 16 Nordeste 25 Norte 0 -- -- 62
2020-01-08 20:00:00 18 22 Norte 31 Nordeste 0 -- -- 59
2020-01-08 19:00:00 18.3 23 Norte 37 Norte 0 -- -- 61
2020-01-08 18:00:00 18.7 23 Norte 34 Norte 0 -- -- 57
2020-01-08 17:00:00 18.7 18 Nordeste 30 Nordeste 0 -- -- 62
2020-01-08 16:00:00 18.7 19 Nordeste 27 Nordeste 0 -- -- 63
2020-01-08 15:00:00 19 15 Este 22 Este 0 -- -- 59
2020-01-08 14:00:00 20.2 10 Este 22 Este 0 -- -- 55
2020-01-08 13:00:00 19.9 16 Este 26 Este 0 -- -- 57
2020-01-08 12:00:00 19.7 14 Nordeste 22 Nordeste 0 -- -- 55
2020-01-08 11:00:00 18.7 14 Nordeste 18 Nordeste 0 -- -- 63
2020-01-08 10:00:00 18.9 8 Norte 16 Nordeste 0 -- -- 59
2020-01-08 09:00:00 17.9 13 Nordeste 18 Norte 0 -- -- 63
2020-01-08 08:00:00 17.4 14 Nordeste 23 Norte 0 -- -- 64
2020-01-08 07:00:00 17.2 15 Nordeste 22 Nordeste 0 -- -- 64
2020-01-08 06:00:00 17.2 14 Nordeste 20 Norte 0 -- -- 63
2020-01-08 05:00:00 17.1 12 Nordeste 18 Nordeste 0 -- -- 66
2020-01-08 04:00:00 17 9 Norte 21 Nordeste 0 -- -- 66
2020-01-08 03:00:00 17.3 16 Norte 26 Nordeste 0 -- -- 68
2020-01-08 02:00:00 17.3 17 Nordeste 27 Nordeste 0 -- -- 66
2020-01-08 01:00:00 17.4 20 Nordeste 27 Norte 0 -- -- 67
2020-01-08 00:00:00 17.4 23 Norte 30 Nordeste 0 -- -- 69
2020-01-07 23:00:00 17.5 21 Nordeste 30 Nordeste 0 -- -- 67
2020-01-07 22:00:00 17.6 21 Nordeste 26 Norte 0 -- -- 66
2020-01-07 21:00:00 17.6 22 Nordeste 31 Nordeste 0 -- -- 65
2020-01-07 20:00:00 17.9 25 Nordeste 31 Nordeste 0 -- -- 68
2020-01-07 19:00:00 18 18 Nordeste 28 Nordeste 0 -- -- 68
2020-01-07 18:00:00 18.1 23 Este 31 Este 0 -- -- 69
2020-01-07 17:00:00 18.7 23 Este 33 Este 0 -- -- 64
2020-01-07 16:00:00 19.3 22 Este 32 Este 0 -- -- 61
2020-01-07 15:00:00 19.6 24 Este 32 Nordeste 0 -- -- 63
2020-01-07 14:00:00 19.8 22 Este 28 Este 0 -- -- 60
2020-01-07 13:00:00 18.6 19 Nordeste 26 Nordeste 0 -- -- 65
2020-01-07 12:00:00 19 19 Nordeste 27 Nordeste 0 -- -- 66
2020-01-07 11:00:00 19.2 17 Nordeste 26 Este 0 -- -- 63
2020-01-07 10:00:00 18.4 18 Nordeste 29 Nordeste 0 -- -- 66
2020-01-07 09:00:00 18.1 21 Nordeste 28 Nordeste 0 -- -- 63
2020-01-07 08:00:00 17.4 24 Nordeste 35 Nordeste 0 -- -- 64
2020-01-07 07:00:00 17.3 28 Nordeste 36 Nordeste 0 -- -- 63
2020-01-07 06:00:00 17.2 26 Nordeste 37 Nordeste 0 -- -- 67
2020-01-07 05:00:00 17.3 28 Nordeste 42 Nordeste 0 -- -- 65
2020-01-07 04:00:00 17.3 30 Nordeste 38 Nordeste 0 -- -- 61
2020-01-07 03:00:00 17.1 22 Nordeste 32 Nordeste 0 -- -- 65
2020-01-07 02:00:00 17.2 22 Nordeste 34 Nordeste 0 -- -- 63
2020-01-07 01:00:00 16.9 10 Nordeste 17 Nordeste 0 -- -- 64
2020-01-07 00:00:00 16.9 17 Nordeste 40 Nordeste 0 -- -- 64
2020-01-06 23:00:00 17.7 20 Nordeste 27 Nordeste 0 -- -- 62
2020-01-06 22:00:00 17.5 11 Nordeste 23 Norte 0 -- -- 59
2020-01-06 21:00:00 17.5 19 Norte 25 Norte 0 -- -- 56
2020-01-06 20:00:00 17.2 15 Norte 30 Norte 0 -- -- 60
2020-01-06 19:00:00 17.6 17 Norte 30 Norte 0 -- -- 64
2020-01-06 18:00:00 17.2 29 Norte 44 Norte 0 -- -- 66
2020-01-06 17:00:00 18.6 24 Norte 37 Norte 0 -- -- 64
2020-01-06 16:00:00 18 14 Nordeste 34 Noroeste 0 -- -- 62
2020-01-06 15:00:00 18.8 17 Norte 30 Norte 0 -- -- 60
2020-01-06 14:00:00 19.8 18 Norte 33 Noroeste 0 -- -- 55
2020-01-06 13:00:00 19.2 21 Noroeste 30 Norte 0 -- -- 61
2020-01-06 12:00:00 19.3 23 Norte 31 Norte 0 -- -- 60
2020-01-06 11:00:00 19.5 13 Noroeste 25 Norte 0 -- -- 57
2020-01-06 10:00:00 18.2 20 Norte 34 Norte 0 -- -- 67
2020-01-06 09:00:00 17.9 29 Norte 48 Norte 0 -- -- 68